sensor_id;sensor_type;location;lat;lon;timestamp;pressure;altitude;pressure_sealevel;temperature;humidity
17311;BME280;8773;43.300;0.394;2022-07-18T00:01:22;99462.38;;;31.80;77.48
17311;BME280;8773;43.300;0.394;2022-07-18T00:03:50;99457.88;;;31.80;77.74
17311;BME280;8773;43.300;0.394;2022-07-18T00:06:18;99464.13;;;31.81;77.95
17311;BME280;8773;43.300;0.394;2022-07-18T00:08:48;99453.41;;;31.79;77.65
17311;BME280;8773;43.300;0.394;2022-07-18T00:11:16;99463.41;;;31.77;77.72
17311;BME280;8773;43.300;0.394;2022-07-18T00:13:44;99460.63;;;31.79;78.22
17311;BME280;8773;43.300;0.394;2022-07-18T00:16:13;99456.09;;;31.79;78.21
17311;BME280;8773;43.300;0.394;2022-07-18T00:18:41;99455.41;;;31.75;77.70
17311;BME280;8773;43.300;0.394;2022-07-18T00:21:09;99457.22;;;31.75;78.16
17311;BME280;8773;43.300;0.394;2022-07-18T00:23:37;99457.22;;;31.75;77.78
17311;BME280;8773;43.300;0.394;2022-07-18T00:26:07;99454.59;;;31.73;78.06
17311;BME280;8773;43.300;0.394;2022-07-18T00:28:35;99456.44;;;31.73;77.94
17311;BME280;8773;43.300;0.394;2022-07-18T00:31:03;99451.09;;;31.71;78.27
17311;BME280;8773;43.300;0.394;2022-07-18T00:33:31;99456.59;;;31.70;78.16
17311;BME280;8773;43.300;0.394;2022-07-18T00:35:59;99458.41;;;31.69;78.66
17311;BME280;8773;43.300;0.394;2022-07-18T00:38:28;99452.06;;;31.70;78.71
17311;BME280;8773;43.300;0.394;2022-07-18T00:40:56;99444.91;;;31.69;78.12
17311;BME280;8773;43.300;0.394;2022-07-18T00:43:25;99447.59;;;31.69;78.60
17311;BME280;8773;43.300;0.394;2022-07-18T00:45:53;99445.94;;;31.67;79.03
17311;BME280;8773;43.300;0.394;2022-07-18T00:48:22;99445.06;;;31.66;78.54
17311;BME280;8773;43.300;0.394;2022-07-18T00:50:50;99450.53;;;31.65;78.44
17311;BME280;8773;43.300;0.394;2022-07-18T00:53:18;99446.09;;;31.64;78.49
17311;BME280;8773;43.300;0.394;2022-07-18T00:55:47;99443.41;;;31.64;78.51
17311;BME280;8773;43.300;0.394;2022-07-18T00:58:15;99451.56;;;31.62;78.61
17311;BME280;8773;43.300;0.394;2022-07-18T01:00:44;99443.47;;;31.62;78.41
17311;BME280;8773;43.300;0.394;2022-07-18T01:03:30;99442.78;;;31.59;79.37
17311;BME280;8773;43.300;0.394;2022-07-18T01:06:01;99444.50;;;31.60;79.41
17311;BME280;8773;43.300;0.394;2022-07-18T01:08:30;99441.03;;;31.58;79.65
17311;BME280;8773;43.300;0.394;2022-07-18T01:10:59;99440.06;;;31.59;79.47
17311;BME280;8773;43.300;0.394;2022-07-18T01:13:27;99436.53;;;31.58;79.09
17311;BME280;8773;43.300;0.394;2022-07-18T01:15:57;99436.53;;;31.58;79.20
17311;BME280;8773;43.300;0.394;2022-07-18T01:18:25;99443.75;;;31.58;78.93
17311;BME280;8773;43.300;0.394;2022-07-18T01:20:55;99434.84;;;31.55;79.17
17311;BME280;8773;43.300;0.394;2022-07-18T01:23:23;99432.31;;;31.52;78.92
17311;BME280;8773;43.300;0.394;2022-07-18T01:25:51;99431.41;;;31.52;79.34
17311;BME280;8773;43.300;0.394;2022-07-18T01:28:19;99428.72;;;31.52;79.56
17311;BME280;8773;43.300;0.394;2022-07-18T01:30:47;99426.94;;;31.52;78.78
17311;BME280;8773;43.300;0.394;2022-07-18T01:33:16;99425.16;;;31.51;78.81
17311;BME280;8773;43.300;0.394;2022-07-18T01:35:44;99419.94;;;31.48;78.95
17311;BME280;8773;43.300;0.394;2022-07-18T01:38:13;99425.31;;;31.48;78.93
17311;BME280;8773;43.300;0.394;2022-07-18T01:40:44;99416.41;;;31.46;79.08
17311;BME280;8773;43.300;0.394;2022-07-18T01:43:12;99418.22;;;31.46;78.92
17311;BME280;8773;43.300;0.394;2022-07-18T01:45:41;99421.00;;;31.44;79.21
17311;BME280;8773;43.300;0.394;2022-07-18T01:48:09;99423.69;;;31.44;79.71
17311;BME280;8773;43.300;0.394;2022-07-18T01:50:37;99428.28;;;31.42;79.82
17311;BME280;8773;43.300;0.394;2022-07-18T01:53:05;99429.25;;;31.41;79.21
17311;BME280;8773;43.300;0.394;2022-07-18T01:55:34;99423.84;;;31.41;79.35
17311;BME280;8773;43.300;0.394;2022-07-18T01:58:03;99423.06;;;31.39;79.42
17311;BME280;8773;43.300;0.394;2022-07-18T02:00:31;99424.88;;;31.39;79.68
17311;BME280;8773;43.300;0.394;2022-07-18T02:03:00;99428.44;;;31.39;79.16
17311;BME280;8773;43.300;0.394;2022-07-18T02:05:28;99419.56;;;31.37;78.90
17311;BME280;8773;43.300;0.394;2022-07-18T02:07:56;99424.00;;;31.38;79.37
17311;BME280;8773;43.300;0.394;2022-07-18T02:10:24;99417.81;;;31.36;79.15
17311;BME280;8773;43.300;0.394;2022-07-18T02:12:54;99412.50;;;31.34;79.54
17311;BME280;8773;43.300;0.394;2022-07-18T02:15:22;99418.78;;;31.35;79.20
17311;BME280;8773;43.300;0.394;2022-07-18T02:17:50;99410.84;;;31.32;79.91
17311;BME280;8773;43.300;0.394;2022-07-18T02:20:19;99414.41;;;31.32;79.49
17311;BME280;8773;43.300;0.394;2022-07-18T02:22:47;99413.69;;;31.29;79.95
17311;BME280;8773;43.300;0.394;2022-07-18T02:25:15;99420.03;;;31.28;79.49
17311;BME280;8773;43.300;0.394;2022-07-18T02:27:43;99419.94;;;31.29;79.88
17311;BME280;8773;43.300;0.394;2022-07-18T02:30:13;99417.41;;;31.26;79.42
17311;BME280;8773;43.300;0.394;2022-07-18T02:32:41;99425.50;;;31.26;79.15
17311;BME280;8773;43.300;0.394;2022-07-18T02:35:09;99424.63;;;31.26;80.02
17311;BME280;8773;43.300;0.394;2022-07-18T02:37:38;99423.81;;;31.24;79.44
17311;BME280;8773;43.300;0.394;2022-07-18T02:40:09;99418.50;;;31.22;79.79
17311;BME280;8773;43.300;0.394;2022-07-18T02:42:38;99416.81;;;31.20;79.61
17311;BME280;8773;43.300;0.394;2022-07-18T02:45:07;99421.34;;;31.19;79.73
17311;BME280;8773;43.300;0.394;2022-07-18T02:47:37;99423.19;;;31.19;80.06
17311;BME280;8773;43.300;0.394;2022-07-18T02:50:06;99424.16;;;31.18;79.57
17311;BME280;8773;43.300;0.394;2022-07-18T02:52:34;99424.22;;;31.16;80.24
17311;BME280;8773;43.300;0.394;2022-07-18T02:55:02;99417.94;;;31.16;80.28
17311;BME280;8773;43.300;0.394;2022-07-18T02:57:30;99417.16;;;31.13;80.02
17311;BME280;8773;43.300;0.394;2022-07-18T02:59:59;99410.03;;;31.12;80.27
17311;BME280;8773;43.300;0.394;2022-07-18T03:02:27;99415.41;;;31.12;79.88
17311;BME280;8773;43.300;0.394;2022-07-18T03:04:56;99412.78;;;31.11;80.41
17311;BME280;8773;43.300;0.394;2022-07-18T03:07:25;99404.84;;;31.08;80.26
17311;BME280;8773;43.300;0.394;2022-07-18T03:09:53;99408.41;;;31.08;79.68
17311;BME280;8773;43.300;0.394;2022-07-18T03:12:21;99408.41;;;31.08;80.36
17311;BME280;8773;43.300;0.394;2022-07-18T03:14:50;99405.00;;;31.05;79.89
17311;BME280;8773;43.300;0.394;2022-07-18T03:17:18;99402.22;;;31.06;80.17
17311;BME280;8773;43.300;0.394;2022-07-18T03:19:46;99404.06;;;31.06;80.36
17311;BME280;8773;43.300;0.394;2022-07-18T03:22:16;99396.03;;;31.04;80.20
17311;BME280;8773;43.300;0.394;2022-07-18T03:24:44;99396.13;;;31.03;80.40
17311;BME280;8773;43.300;0.394;2022-07-18T03:27:12;99397.94;;;31.02;80.42
17311;BME280;8773;43.300;0.394;2022-07-18T03:29:40;99405.16;;;31.02;79.83
17311;BME280;8773;43.300;0.394;2022-07-18T03:32:08;99392.63;;;31.01;80.04
17311;BME280;8773;43.300;0.394;2022-07-18T03:34:36;99400.72;;;31.01;79.81
17311;BME280;8773;43.300;0.394;2022-07-18T03:37:04;99398.94;;;31.00;79.81
17311;BME280;8773;43.300;0.394;2022-07-18T03:39:34;99391.91;;;30.97;80.27
17311;BME280;8773;43.300;0.394;2022-07-18T03:42:02;99399.97;;;30.97;80.56
17311;BME280;8773;43.300;0.394;2022-07-18T03:44:30;99396.50;;;30.95;80.62
17311;BME280;8773;43.300;0.394;2022-07-18T03:46:58;99403.66;;;30.95;80.38
17311;BME280;8773;43.300;0.394;2022-07-18T03:49:27;99396.53;;;30.94;80.05
17311;BME280;8773;43.300;0.394;2022-07-18T03:51:55;99400.09;;;30.94;80.62
17311;BME280;8773;43.300;0.394;2022-07-18T03:54:23;99391.16;;;30.94;79.79
17311;BME280;8773;43.300;0.394;2022-07-18T03:56:52;99398.38;;;30.93;80.71
17311;BME280;8773;43.300;0.394;2022-07-18T03:59:20;99397.63;;;30.89;80.41
17311;BME280;8773;43.300;0.394;2022-07-18T04:01:49;99391.31;;;30.90;80.67
17311;BME280;8773;43.300;0.394;2022-07-18T04:04:17;99390.44;;;30.90;80.11
17311;BME280;8773;43.300;0.394;2022-07-18T04:06:45;99386.09;;;30.87;80.28
17311;BME280;8773;43.300;0.394;2022-07-18T04:09:13;99388.69;;;30.89;80.90
17311;BME280;8773;43.300;0.394;2022-07-18T04:11:41;99390.56;;;30.87;80.69
17311;BME280;8773;43.300;0.394;2022-07-18T04:14:10;99395.91;;;30.88;80.61
17311;BME280;8773;43.300;0.394;2022-07-18T04:16:38;99391.53;;;30.86;80.77
17311;BME280;8773;43.300;0.394;2022-07-18T04:19:07;99404.13;;;30.85;80.66
17311;BME280;8773;43.300;0.394;2022-07-18T04:21:35;99398.75;;;30.85;79.98
17311;BME280;8773;43.300;0.394;2022-07-18T04:24:03;99392.56;;;30.83;80.03
17311;BME280;8773;43.300;0.394;2022-07-18T04:26:31;99393.56;;;30.81;80.27
17311;BME280;8773;43.300;0.394;2022-07-18T04:28:59;99389.00;;;30.83;80.20
17311;BME280;8773;43.300;0.394;2022-07-18T04:31:29;99393.56;;;30.81;80.79
17311;BME280;8773;43.300;0.394;2022-07-18T04:33:58;99394.59;;;30.78;80.87
17311;BME280;8773;43.300;0.394;2022-07-18T04:36:26;99383.81;;;30.78;80.23
17311;BME280;8773;43.300;0.394;2022-07-18T04:38:54;99395.47;;;30.79;80.29
17311;BME280;8773;43.300;0.394;2022-07-18T04:41:22;99387.53;;;30.76;80.73
17311;BME280;8773;43.300;0.394;2022-07-18T04:43:52;99394.66;;;30.77;80.27
17311;BME280;8773;43.300;0.394;2022-07-18T04:46:20;99392.94;;;30.76;80.60
17311;BME280;8773;43.300;0.394;2022-07-18T04:48:49;99392.13;;;30.74;80.80
17311;BME280;8773;43.300;0.394;2022-07-18T04:51:17;99388.56;;;30.73;80.30
17311;BME280;8773;43.300;0.394;2022-07-18T04:53:45;99385.94;;;30.72;80.26
17311;BME280;8773;43.300;0.394;2022-07-18T04:56:13;99394.97;;;30.70;80.50
17311;BME280;8773;43.300;0.394;2022-07-18T04:58:42;99394.97;;;30.70;80.61
17311;BME280;8773;43.300;0.394;2022-07-18T05:01:10;99395.91;;;30.69;80.04
17311;BME280;8773;43.300;0.394;2022-07-18T05:03:38;99389.75;;;30.67;80.88
17311;BME280;8773;43.300;0.394;2022-07-18T05:06:07;99393.28;;;30.68;80.20
17311;BME280;8773;43.300;0.394;2022-07-18T05:08:35;99392.50;;;30.66;80.89
17311;BME280;8773;43.300;0.394;2022-07-18T05:11:03;99392.56;;;30.64;80.92
17311;BME280;8773;43.300;0.394;2022-07-18T05:13:31;99389.84;;;30.64;80.27
17311;BME280;8773;43.300;0.394;2022-07-18T05:16:00;99385.50;;;30.62;80.96
17311;BME280;8773;43.300;0.394;2022-07-18T05:18:28;99389.06;;;30.62;80.19
17311;BME280;8773;43.300;0.394;2022-07-18T05:20:56;99382.91;;;30.60;80.89
17311;BME280;8773;43.300;0.394;2022-07-18T05:23:25;99378.44;;;30.59;80.20
17311;BME280;8773;43.300;0.394;2022-07-18T05:25:54;99384.78;;;30.58;80.33
17311;BME280;8773;43.300;0.394;2022-07-18T05:28:22;99381.13;;;30.59;80.39
17311;BME280;8773;43.300;0.394;2022-07-18T05:30:50;99375.84;;;30.58;80.80
17311;BME280;8773;43.300;0.394;2022-07-18T05:33:21;99373.22;;;30.56;81.01
17311;BME280;8773;43.300;0.394;2022-07-18T05:35:49;99374.06;;;30.57;80.38
17311;BME280;8773;43.300;0.394;2022-07-18T05:38:17;99374.22;;;30.54;80.40
17311;BME280;8773;43.300;0.394;2022-07-18T05:40:46;99367.13;;;30.53;80.63
17311;BME280;8773;43.300;0.394;2022-07-18T05:43:15;99374.38;;;30.51;80.76
17311;BME280;8773;43.300;0.394;2022-07-18T05:45:43;99373.41;;;30.52;80.82
17311;BME280;8773;43.300;0.394;2022-07-18T05:48:11;99366.38;;;30.49;80.50
17311;BME280;8773;43.300;0.394;2022-07-18T05:50:39;99365.50;;;30.48;80.91
17311;BME280;8773;43.300;0.394;2022-07-18T05:53:07;99363.84;;;30.46;81.09
17311;BME280;8773;43.300;0.394;2022-07-18T05:55:35;99365.56;;;30.47;81.04
17311;BME280;8773;43.300;0.394;2022-07-18T05:58:05;99366.53;;;30.46;81.15
17311;BME280;8773;43.300;0.394;2022-07-18T06:00:35;99367.44;;;30.45;80.76
17311;BME280;8773;43.300;0.394;2022-07-18T06:03:03;99373.72;;;30.45;80.91
17311;BME280;8773;43.300;0.394;2022-07-18T06:05:31;99363.97;;;30.43;80.76
17311;BME280;8773;43.300;0.394;2022-07-18T06:07:59;99372.81;;;30.45;81.09
17311;BME280;8773;43.300;0.394;2022-07-18T06:10:28;99367.53;;;30.43;80.96
17311;BME280;8773;43.300;0.394;2022-07-18T06:12:56;99363.09;;;30.42;81.08
17311;BME280;8773;43.300;0.394;2022-07-18T06:15:25;99372.06;;;30.43;80.29
17311;BME280;8773;43.300;0.394;2022-07-18T06:17:54;99370.22;;;30.43;80.94
17311;BME280;8773;43.300;0.394;2022-07-18T06:20:22;99369.38;;;30.43;80.70
17311;BME280;8773;43.300;0.394;2022-07-18T06:22:50;99367.56;;;30.42;80.95
17311;BME280;8773;43.300;0.394;2022-07-18T06:25:19;99372.94;;;30.42;80.81
17311;BME280;8773;43.300;0.394;2022-07-18T06:27:47;99372.94;;;30.42;80.98
17311;BME280;8773;43.300;0.394;2022-07-18T06:30:15;99369.44;;;30.40;80.92
17311;BME280;8773;43.300;0.394;2022-07-18T06:32:45;99367.66;;;30.40;80.38
17311;BME280;8773;43.300;0.394;2022-07-18T06:35:13;99371.22;;;30.41;80.85
17311;BME280;8773;43.300;0.394;2022-07-18T06:37:41;99368.53;;;30.41;80.95
17311;BME280;8773;43.300;0.394;2022-07-18T06:40:09;99364.00;;;30.41;80.57
17311;BME280;8773;43.300;0.394;2022-07-18T06:42:38;99363.13;;;30.41;80.76
17311;BME280;8773;43.300;0.394;2022-07-18T06:45:07;99368.53;;;30.41;80.27
17311;BME280;8773;43.300;0.394;2022-07-18T06:47:41;99367.72;;;30.39;80.28
17311;BME280;8773;43.300;0.394;2022-07-18T06:50:12;99363.19;;;30.39;80.74
17311;BME280;8773;43.300;0.394;2022-07-18T06:52:41;99372.09;;;30.41;80.55
17311;BME280;8773;43.300;0.394;2022-07-18T06:55:11;99362.19;;;30.42;79.96
17311;BME280;8773;43.300;0.394;2022-07-18T06:57:40;99367.56;;;30.42;80.19
17311;BME280;8773;43.300;0.394;2022-07-18T07:00:10;99362.28;;;30.40;80.39
17311;BME280;8773;43.300;0.394;2022-07-18T07:02:41;99365.84;;;30.41;80.23
17311;BME280;8773;43.300;0.394;2022-07-18T07:05:10;99363.13;;;30.41;80.71
17311;BME280;8773;43.300;0.394;2022-07-18T07:07:39;99366.69;;;30.41;80.47
17311;BME280;8773;43.300;0.394;2022-07-18T07:10:14;99364.06;;;30.40;79.97
17311;BME280;8773;43.300;0.394;2022-07-18T07:12:43;99365.03;;;30.39;80.56
17311;BME280;8773;43.300;0.394;2022-07-18T07:15:12;99370.34;;;30.40;80.58
17311;BME280;8773;43.300;0.394;2022-07-18T07:17:41;99362.34;;;30.39;79.95
17311;BME280;8773;43.300;0.394;2022-07-18T07:20:11;99364.16;;;30.38;79.93
17311;BME280;8773;43.300;0.394;2022-07-18T07:22:44;99365.97;;;30.38;79.95
17311;BME280;8773;43.300;0.394;2022-07-18T07:25:15;99365.88;;;30.39;79.96
17311;BME280;8773;43.300;0.394;2022-07-18T07:27:44;99363.28;;;30.38;79.96
17311;BME280;8773;43.300;0.394;2022-07-18T07:30:13;99360.59;;;30.38;80.73
17311;BME280;8773;43.300;0.394;2022-07-18T07:32:44;99357.81;;;30.39;80.73
17311;BME280;8773;43.300;0.394;2022-07-18T07:35:15;99367.72;;;30.39;80.37
17311;BME280;8773;43.300;0.394;2022-07-18T07:37:46;99359.66;;;30.39;80.59
17311;BME280;8773;43.300;0.394;2022-07-18T07:40:15;99368.53;;;30.41;80.19
17311;BME280;8773;43.300;0.394;2022-07-18T07:42:44;99373.09;;;30.39;80.60
17311;BME280;8773;43.300;0.394;2022-07-18T07:45:12;99369.44;;;30.40;80.40
17311;BME280;8773;43.300;0.394;2022-07-18T07:47:41;99373.03;;;30.40;80.58
17311;BME280;8773;43.300;0.394;2022-07-18T07:50:10;99375.72;;;30.40;80.56
17311;BME280;8773;43.300;0.394;2022-07-18T07:52:40;99369.44;;;30.40;80.03
17311;BME280;8773;43.300;0.394;2022-07-18T07:55:09;99373.91;;;30.41;80.19
17311;BME280;8773;43.300;0.394;2022-07-18T07:57:37;99377.47;;;30.41;80.60
17311;BME280;8773;43.300;0.394;2022-07-18T08:00:07;99372.09;;;30.41;80.03
17311;BME280;8773;43.300;0.394;2022-07-18T08:02:35;99370.25;;;30.42;80.61
17311;BME280;8773;43.300;0.394;2022-07-18T08:05:04;99365.84;;;30.41;79.87
17311;BME280;8773;43.300;0.394;2022-07-18T08:07:32;99368.53;;;30.41;80.57
17311;BME280;8773;43.300;0.394;2022-07-18T08:10:02;99364.88;;;30.42;79.97
17311;BME280;8773;43.300;0.394;2022-07-18T08:12:30;99359.47;;;30.43;80.51
17311;BME280;8773;43.300;0.394;2022-07-18T08:14:58;99365.78;;;30.42;80.06
17311;BME280;8773;43.300;0.394;2022-07-18T08:17:27;99360.34;;;30.44;80.48
17311;BME280;8773;43.300;0.394;2022-07-18T08:19:55;99357.63;;;30.44;80.49
17311;BME280;8773;43.300;0.394;2022-07-18T08:22:23;99354.09;;;30.43;80.17
17311;BME280;8773;43.300;0.394;2022-07-18T08:24:51;99353.13;;;30.44;80.00
17311;BME280;8773;43.300;0.394;2022-07-18T08:27:21;99347.75;;;30.44;80.20
17311;BME280;8773;43.300;0.394;2022-07-18T08:29:49;99352.25;;;30.44;80.57
17311;BME280;8773;43.300;0.394;2022-07-18T08:32:34;99345.91;;;30.45;80.58
17311;BME280;8773;43.300;0.394;2022-07-18T08:35:03;99355.75;;;30.46;79.72
17311;BME280;8773;43.300;0.394;2022-07-18T08:37:31;99353.94;;;30.46;79.87
17311;BME280;8773;43.300;0.394;2022-07-18T08:39:59;99346.81;;;30.45;79.97
17311;BME280;8773;43.300;0.394;2022-07-18T08:42:31;99343.22;;;30.45;79.73
17311;BME280;8773;43.300;0.394;2022-07-18T08:45:01;99339.53;;;30.47;79.88
17311;BME280;8773;43.300;0.394;2022-07-18T08:47:29;99341.34;;;30.47;80.54
17311;BME280;8773;43.300;0.394;2022-07-18T08:49:58;99334.16;;;30.47;80.20
17311;BME280;8773;43.300;0.394;2022-07-18T08:52:27;99330.50;;;30.48;80.05
17311;BME280;8773;43.300;0.394;2022-07-18T08:55:16;99334.16;;;30.47;79.93
17311;BME280;8773;43.300;0.394;2022-07-18T08:57:54;99344.84;;;30.49;79.89
17311;BME280;8773;43.300;0.394;2022-07-18T09:00:22;99343.91;;;30.50;80.49
17311;BME280;8773;43.300;0.394;2022-07-18T09:02:57;99344.94;;;30.47;80.58
17311;BME280;8773;43.300;0.394;2022-07-18T09:05:27;99349.28;;;30.50;80.54
17311;BME280;8773;43.300;0.394;2022-07-18T09:08:10;99352.03;;;30.48;80.14
17311;BME280;8773;43.300;0.394;2022-07-18T09:10:49;99346.66;;;30.48;80.50
17311;BME280;8773;43.300;0.394;2022-07-18T09:13:22;99347.53;;;30.49;80.16
17311;BME280;8773;43.300;0.394;2022-07-18T09:16:02;99344.84;;;30.49;80.53
17311;BME280;8773;43.300;0.394;2022-07-18T09:18:31;99344.69;;;30.52;80.62
17311;BME280;8773;43.300;0.394;2022-07-18T09:21:06;99338.38;;;30.53;80.20
17311;BME280;8773;43.300;0.394;2022-07-18T09:23:36;99346.44;;;30.53;80.15
17311;BME280;8773;43.300;0.394;2022-07-18T09:26:07;99351.72;;;30.55;80.34
17311;BME280;8773;43.300;0.394;2022-07-18T09:28:47;99345.63;;;30.51;80.49
17311;BME280;8773;43.300;0.394;2022-07-18T09:31:35;99343.66;;;30.55;80.20
17311;BME280;8773;43.300;0.394;2022-07-18T09:34:04;99351.72;;;30.55;80.11
17311;BME280;8773;43.300;0.394;2022-07-18T09:36:32;99350.88;;;30.54;80.51
17311;BME280;8773;43.300;0.394;2022-07-18T09:39:17;99350.00;;;30.54;80.80
17311;BME280;8773;43.300;0.394;2022-07-18T09:41:47;99345.34;;;30.57;80.35
17311;BME280;8773;43.300;0.394;2022-07-18T09:44:17;99352.47;;;30.58;80.64
17311;BME280;8773;43.300;0.394;2022-07-18T09:47:01;99337.41;;;30.54;80.17
17311;BME280;8773;43.300;0.394;2022-07-18T09:49:30;99345.34;;;30.57;80.81
17311;BME280;8773;43.300;0.394;2022-07-18T09:52:06;99349.03;;;30.55;80.10
17311;BME280;8773;43.300;0.394;2022-07-18T09:54:38;99345.34;;;30.57;80.62
17311;BME280;8773;43.300;0.394;2022-07-18T09:57:07;99346.13;;;30.59;80.82
17311;BME280;8773;43.300;0.394;2022-07-18T09:59:37;99349.69;;;30.60;80.82
17311;BME280;8773;43.300;0.394;2022-07-18T10:02:13;99344.31;;;30.60;80.33
17311;BME280;8773;43.300;0.394;2022-07-18T10:04:42;99342.53;;;30.60;80.72
17311;BME280;8773;43.300;0.394;2022-07-18T10:07:11;99348.78;;;30.61;80.61
17311;BME280;8773;43.300;0.394;2022-07-18T10:09:39;99343.38;;;30.61;80.28
17311;BME280;8773;43.300;0.394;2022-07-18T10:12:08;99346.06;;;30.61;80.73
17311;BME280;8773;43.300;0.394;2022-07-18T10:14:38;99343.28;;;30.62;80.44
17311;BME280;8773;43.300;0.394;2022-07-18T10:17:06;99348.66;;;30.62;80.16
17311;BME280;8773;43.300;0.394;2022-07-18T10:19:34;99345.91;;;30.64;80.17
17311;BME280;8773;43.300;0.394;2022-07-18T10:22:04;99357.56;;;30.64;80.51
17311;BME280;8773;43.300;0.394;2022-07-18T10:24:38;99350.44;;;30.63;80.59
17311;BME280;8773;43.300;0.394;2022-07-18T10:27:15;99337.03;;;30.62;80.21
17311;BME280;8773;43.300;0.394;2022-07-18T10:30:09;99346.06;;;30.61;80.21
17311;BME280;8773;43.300;0.394;2022-07-18T10:32:37;99352.16;;;30.64;80.35
17311;BME280;8773;43.300;0.394;2022-07-18T10:35:06;99349.41;;;30.66;80.09
17311;BME280;8773;43.300;0.394;2022-07-18T10:37:35;99340.38;;;30.67;80.52
17311;BME280;8773;43.300;0.394;2022-07-18T10:40:24;99356.69;;;30.64;80.14
17311;BME280;8773;43.300;0.394;2022-07-18T10:43:37;99344.19;;;30.63;80.49
17311;BME280;8773;43.300;0.394;2022-07-18T10:46:08;99342.25;;;30.65;80.03
17311;BME280;8773;43.300;0.394;2022-07-18T10:48:58;99344.03;;;30.66;80.60
17311;BME280;8773;43.300;0.394;2022-07-18T10:51:31;99338.66;;;30.66;80.56
17311;BME280;8773;43.300;0.394;2022-07-18T10:54:08;99335.09;;;30.65;79.80
17311;BME280;8773;43.300;0.394;2022-07-18T10:57:08;99341.28;;;30.67;80.37
17311;BME280;8773;43.300;0.394;2022-07-18T10:59:39;99340.25;;;30.70;79.94
17311;BME280;8773;43.300;0.394;2022-07-18T11:02:35;99337.63;;;30.68;80.29
17311;BME280;8773;43.300;0.394;2022-07-18T11:05:31;99336.75;;;30.68;80.18
17311;BME280;8773;43.300;0.394;2022-07-18T11:08:16;99337.63;;;30.68;79.55
17311;BME280;8773;43.300;0.394;2022-07-18T11:11:08;99334.94;;;30.68;79.95
17311;BME280;8773;43.300;0.394;2022-07-18T11:13:37;99330.25;;;30.72;79.76
17311;BME280;8773;43.300;0.394;2022-07-18T11:16:09;99329.31;;;30.73;80.11
17311;BME280;8773;43.300;0.394;2022-07-18T11:19:19;99328.53;;;30.71;79.54
17311;BME280;8773;43.300;0.394;2022-07-18T11:21:57;99326.69;;;30.72;79.99
17311;BME280;8773;43.300;0.394;2022-07-18T11:24:26;99329.22;;;30.75;79.51
17311;BME280;8773;43.300;0.394;2022-07-18T11:26:55;99338.13;;;30.77;79.39
17311;BME280;8773;43.300;0.394;2022-07-18T11:29:23;99325.50;;;30.77;79.49
17311;BME280;8773;43.300;0.394;2022-07-18T11:31:53;99325.44;;;30.79;79.79
17311;BME280;8773;43.300;0.394;2022-07-18T11:34:24;99319.09;;;30.80;79.41
17311;BME280;8773;43.300;0.394;2022-07-18T11:37:05;99315.47;;;30.81;80.05
17311;BME280;8773;43.300;0.394;2022-07-18T11:39:33;99320.88;;;30.81;79.29
17311;BME280;8773;43.300;0.394;2022-07-18T11:42:02;99320.72;;;30.84;80.05
17311;BME280;8773;43.300;0.394;2022-07-18T11:44:31;99312.69;;;30.82;79.91
17311;BME280;8773;43.300;0.394;2022-07-18T11:47:04;99314.47;;;30.83;80.11
17311;BME280;8773;43.300;0.394;2022-07-18T11:49:34;99304.56;;;30.84;79.48
17311;BME280;8773;43.300;0.394;2022-07-18T11:52:03;99311.66;;;30.85;79.91
17311;BME280;8773;43.300;0.394;2022-07-18T11:54:32;99307.97;;;30.87;79.42
17311;BME280;8773;43.300;0.394;2022-07-18T11:57:01;99305.34;;;30.86;79.83
17311;BME280;8773;43.300;0.394;2022-07-18T11:59:36;99308.97;;;30.85;79.75
17311;BME280;8773;43.300;0.394;2022-07-18T12:02:05;99312.41;;;30.88;79.41
17311;BME280;8773;43.300;0.394;2022-07-18T12:04:35;99309.72;;;30.88;79.28
17311;BME280;8773;43.300;0.394;2022-07-18T12:07:14;99297.28;;;30.86;79.11
17311;BME280;8773;43.300;0.394;2022-07-18T12:09:43;99301.63;;;30.88;79.86
17311;BME280;8773;43.300;0.394;2022-07-18T12:12:13;99299.81;;;30.89;79.54
17311;BME280;8773;43.300;0.394;2022-07-18T12:14:55;99295.38;;;30.88;79.79
17311;BME280;8773;43.300;0.394;2022-07-18T12:17:23;99289.84;;;30.91;79.09
17311;BME280;8773;43.300;0.394;2022-07-18T12:20:08;99296.25;;;30.88;78.93
17311;BME280;8773;43.300;0.394;2022-07-18T12:22:37;99290.53;;;30.95;79.35
17311;BME280;8773;43.300;0.394;2022-07-18T12:25:34;99293.41;;;30.91;79.37
17311;BME280;8773;43.300;0.394;2022-07-18T12:28:12;99287.22;;;30.89;79.18
17311;BME280;8773;43.300;0.394;2022-07-18T12:30:40;99278.91;;;30.94;78.70
17311;BME280;8773;43.300;0.394;2022-07-18T12:33:08;99284.25;;;30.96;79.25
17311;BME280;8773;43.300;0.394;2022-07-18T12:35:38;99276.06;;;30.97;78.70
17311;BME280;8773;43.300;0.394;2022-07-18T12:38:09;99276.97;;;30.98;78.53
17311;BME280;8773;43.300;0.394;2022-07-18T12:40:43;99276.00;;;30.99;78.91
17311;BME280;8773;43.300;0.394;2022-07-18T12:43:13;99272.34;;;31.00;79.24
17311;BME280;8773;43.300;0.394;2022-07-18T12:45:44;99266.03;;;31.01;78.86
17311;BME280;8773;43.300;0.394;2022-07-18T12:48:13;99270.63;;;30.99;78.31
17311;BME280;8773;43.300;0.394;2022-07-18T12:50:43;99264.22;;;31.01;78.45
17311;BME280;8773;43.300;0.394;2022-07-18T12:53:12;99267.75;;;31.02;78.26
17311;BME280;8773;43.300;0.394;2022-07-18T12:55:41;99265.00;;;31.03;78.02
17311;BME280;8773;43.300;0.394;2022-07-18T12:58:09;99273.09;;;31.03;78.84
17311;BME280;8773;43.300;0.394;2022-07-18T13:00:38;99265.00;;;31.03;78.62
17311;BME280;8773;43.300;0.394;2022-07-18T13:03:06;99271.19;;;31.05;78.76
17311;BME280;8773;43.300;0.394;2022-07-18T13:05:34;99260.41;;;31.05;78.16
17311;BME280;8773;43.300;0.394;2022-07-18T13:08:04;99251.44;;;31.05;77.95
17311;BME280;8773;43.300;0.394;2022-07-18T13:10:33;99253.13;;;31.07;78.45
17311;BME280;8773;43.300;0.394;2022-07-18T13:13:02;99248.63;;;31.08;78.48
17311;BME280;8773;43.300;0.394;2022-07-18T13:15:31;99252.16;;;31.08;78.13
17311;BME280;8773;43.300;0.394;2022-07-18T13:17:59;99248.50;;;31.09;77.60
17311;BME280;8773;43.300;0.394;2022-07-18T13:20:27;99245.81;;;31.09;77.97
17311;BME280;8773;43.300;0.394;2022-07-18T13:22:57;99240.28;;;31.12;77.76
17311;BME280;8773;43.300;0.394;2022-07-18T13:25:30;99242.19;;;31.10;78.20
17311;BME280;8773;43.300;0.394;2022-07-18T13:28:00;99237.50;;;31.14;78.22